createdAt,value
2023-01-29T00:00:30.547Z,7.13
2023-01-29T00:15:32.596Z,8.75
2023-01-29T00:30:35.492Z,10.68
2023-01-29T00:45:37.579Z,11.55
2023-01-29T01:00:39.526Z,10.40
2023-01-29T01:15:41.442Z,9.82
2023-01-29T01:30:43.412Z,11.02
2023-01-29T01:45:46.834Z,10.80
2023-01-29T02:00:49.114Z,9.82
2023-01-29T02:15:51.059Z,7.63
2023-01-29T02:31:19.373Z,7.10
2023-01-29T02:46:42.483Z,7.28
2023-01-29T03:01:56.255Z,8.13
2023-01-29T03:16:58.843Z,8.02
2023-01-29T03:32:09.505Z,7.20
2023-01-29T03:47:27.510Z,7.03
2023-01-29T04:02:34.636Z,7.18
2023-01-29T04:17:40.718Z,8.50
2023-01-29T04:32:57.765Z,8.32
2023-01-29T04:48:08.235Z,9.53
2023-01-29T05:03:14.504Z,8.60
2023-01-29T05:18:16.705Z,9.40
2023-01-29T05:33:28.010Z,9.25
2023-01-29T05:48:31.466Z,9.23
2023-01-29T06:03:33.397Z,7.95
2023-01-29T06:18:36.397Z,8.30
2023-01-29T06:33:38.345Z,8.30
2023-01-29T06:48:40.250Z,8.38
2023-01-29T07:03:42.820Z,8.23
2023-01-29T07:18:44.802Z,8.23
2023-01-29T07:33:46.922Z,8.25
2023-01-29T07:48:48.829Z,7.47
2023-01-29T08:03:51.505Z,8.93
2023-01-29T08:18:53.502Z,9.25
2023-01-29T08:33:55.813Z,10.35
2023-01-29T08:48:57.823Z,10.25
2023-01-29T09:03:59.730Z,9.45
2023-01-29T09:19:01.761Z,10.40
2023-01-29T09:34:03.704Z,12.05
2023-01-29T09:49:27.058Z,11.68
2023-01-29T10:04:47.629Z,11.82
2023-01-29T10:20:08.346Z,10.85
2023-01-29T10:35:31.811Z,11.05
2023-01-29T10:50:50.824Z,9.65
2023-01-29T11:06:11.888Z,10.55
2023-01-29T11:21:14.812Z,14.07
2023-01-29T11:36:34.705Z,10.50
2023-01-29T11:51:38.639Z,9.30
2023-01-29T12:06:44.157Z,9.10
2023-01-29T12:22:05.005Z,8.10
2023-01-29T12:37:18.374Z,7.65
2023-01-29T12:52:33.645Z,7.85
2023-01-29T13:07:46.189Z,10.05
2023-01-29T13:22:49.856Z,13.10
2023-01-29T13:37:55.008Z,9.93
2023-01-29T13:53:02.320Z,10.38
2023-01-29T14:08:06.490Z,10.23
2023-01-29T14:23:18.734Z,11.88
2023-01-29T14:38:26.199Z,11.43
2023-01-29T14:53:48.452Z,14.07
2023-01-29T15:09:02.889Z,13.07
2023-01-29T15:24:07.109Z,12.25
2023-01-29T15:39:23.697Z,12.70
2023-01-29T15:54:30.329Z,15.18
2023-01-29T16:09:32.435Z,16.30
2023-01-29T16:24:38.141Z,17.08
2023-01-29T16:39:45.703Z,17.73
2023-01-29T16:54:47.719Z,16.57
2023-01-29T17:09:56.480Z,18.92
2023-01-29T17:24:58.432Z,19.17
2023-01-29T17:40:01.955Z,19.08
2023-01-29T17:55:05.537Z,19.17
2023-01-29T18:10:13.289Z,19.40
2023-01-29T18:25:16.364Z,19.57
2023-01-29T18:40:19.005Z,20.10
2023-01-29T18:55:21.602Z,23.45
2023-01-29T19:10:23.619Z,23.38
2023-01-29T19:25:25.718Z,21.55
2023-01-29T19:40:27.728Z,25.88
2023-01-29T19:55:29.705Z,25.38
2023-01-29T20:10:31.691Z,23.33
2023-01-29T20:25:33.731Z,25.60
2023-01-29T20:40:35.727Z,27.15
2023-01-29T20:55:37.713Z,22.83
2023-01-29T21:10:40.645Z,23.33
2023-01-29T21:25:45.187Z,18.42
2023-01-29T21:40:47.133Z,15.98
2023-01-29T21:55:49.049Z,17.92
2023-01-29T22:10:51.004Z,18.00
2023-01-29T22:25:53.007Z,21.02
2023-01-29T22:40:56.312Z,20.08
2023-01-29T22:55:58.219Z,20.00
2023-01-29T23:11:15.178Z,17.92
2023-01-29T23:26:35.969Z,17.80
2023-01-29T23:41:38.028Z,17.42
2023-01-29T23:56:40.140Z,17.58
